sensor_id;sensor_type;location;lat;lon;timestamp;P1;durP1;ratioP1;P2;durP2;ratioP2
9138;SDS011;4604;48.616;9.548;2022-12-28T00:01:54;4.40;;;2.60;;
9138;SDS011;4604;48.616;9.548;2022-12-28T00:04:20;3.10;;;2.40;;
9138;SDS011;4604;48.616;9.548;2022-12-28T00:06:47;2.20;;;2.00;;
9138;SDS011;4604;48.616;9.548;2022-12-28T00:09:14;2.97;;;2.00;;
9138;SDS011;4604;48.616;9.548;2022-12-28T00:11:41;3.50;;;2.30;;
9138;SDS011;4604;48.616;9.548;2022-12-28T00:14:08;3.40;;;2.40;;
9138;SDS011;4604;48.616;9.548;2022-12-28T00:16:35;2.00;;;1.77;;
9138;SDS011;4604;48.616;9.548;2022-12-28T00:19:05;2.03;;;1.70;;
9138;SDS011;4604;48.616;9.548;2022-12-28T00:21:35;2.63;;;2.00;;
9138;SDS011;4604;48.616;9.548;2022-12-28T00:24:02;2.67;;;1.93;;
9138;SDS011;4604;48.616;9.548;2022-12-28T00:26:29;4.47;;;1.90;;
9138;SDS011;4604;48.616;9.548;2022-12-28T00:28:58;4.43;;;1.70;;
9138;SDS011;4604;48.616;9.548;2022-12-28T00:31:25;2.50;;;1.40;;
9138;SDS011;4604;48.616;9.548;2022-12-28T00:33:52;4.33;;;1.83;;
9138;SDS011;4604;48.616;9.548;2022-12-28T00:36:20;8.87;;;3.80;;
9138;SDS011;4604;48.616;9.548;2022-12-28T00:38:47;14.43;;;6.97;;
9138;SDS011;4604;48.616;9.548;2022-12-28T00:41:13;6.40;;;4.00;;
9138;SDS011;4604;48.616;9.548;2022-12-28T00:43:40;4.17;;;3.13;;
9138;SDS011;4604;48.616;9.548;2022-12-28T00:46:07;3.90;;;2.40;;
9138;SDS011;4604;48.616;9.548;2022-12-28T00:48:33;3.17;;;1.80;;
9138;SDS011;4604;48.616;9.548;2022-12-28T00:51:01;1.90;;;1.47;;
9138;SDS011;4604;48.616;9.548;2022-12-28T00:53:30;2.20;;;1.60;;
9138;SDS011;4604;48.616;9.548;2022-12-28T00:56:03;3.20;;;1.90;;
9138;SDS011;4604;48.616;9.548;2022-12-28T00:58:30;2.50;;;1.63;;
9138;SDS011;4604;48.616;9.548;2022-12-28T01:00:57;1.37;;;1.10;;
9138;SDS011;4604;48.616;9.548;2022-12-28T01:03:24;1.30;;;1.17;;
9138;SDS011;4604;48.616;9.548;2022-12-28T01:05:51;1.30;;;1.20;;
9138;SDS011;4604;48.616;9.548;2022-12-28T01:08:18;2.50;;;1.40;;
9138;SDS011;4604;48.616;9.548;2022-12-28T01:10:46;1.97;;;1.30;;
9138;SDS011;4604;48.616;9.548;2022-12-28T01:13:12;1.37;;;1.23;;
9138;SDS011;4604;48.616;9.548;2022-12-28T01:15:39;1.20;;;1.10;;
9138;SDS011;4604;48.616;9.548;2022-12-28T01:18:06;1.20;;;1.10;;
9138;SDS011;4604;48.616;9.548;2022-12-28T01:20:32;2.47;;;0.97;;
9138;SDS011;4604;48.616;9.548;2022-12-28T01:22:59;2.00;;;1.33;;
9138;SDS011;4604;48.616;9.548;2022-12-28T01:25:26;1.53;;;1.17;;
9138;SDS011;4604;48.616;9.548;2022-12-28T01:27:54;0.87;;;0.83;;
9138;SDS011;4604;48.616;9.548;2022-12-28T01:30:20;1.47;;;1.03;;
9138;SDS011;4604;48.616;9.548;2022-12-28T01:32:47;1.67;;;1.10;;
9138;SDS011;4604;48.616;9.548;2022-12-28T01:35:14;1.20;;;0.90;;
9138;SDS011;4604;48.616;9.548;2022-12-28T01:37:40;1.13;;;1.03;;
9138;SDS011;4604;48.616;9.548;2022-12-28T01:40:08;1.20;;;1.10;;
9138;SDS011;4604;48.616;9.548;2022-12-28T01:42:38;1.00;;;0.90;;
9138;SDS011;4604;48.616;9.548;2022-12-28T01:45:16;1.60;;;1.30;;
9138;SDS011;4604;48.616;9.548;2022-12-28T01:47:44;1.33;;;1.10;;
9138;SDS011;4604;48.616;9.548;2022-12-28T01:50:13;1.27;;;1.00;;
9138;SDS011;4604;48.616;9.548;2022-12-28T01:52:43;2.00;;;1.43;;
9138;SDS011;4604;48.616;9.548;2022-12-28T01:55:13;1.27;;;1.17;;
9138;SDS011;4604;48.616;9.548;2022-12-28T01:57:43;3.97;;;1.07;;
9138;SDS011;4604;48.616;9.548;2022-12-28T02:00:14;1.77;;;0.90;;
9138;SDS011;4604;48.616;9.548;2022-12-28T02:02:44;0.90;;;0.90;;
9138;SDS011;4604;48.616;9.548;2022-12-28T02:05:14;2.07;;;1.23;;
9138;SDS011;4604;48.616;9.548;2022-12-28T02:07:43;1.20;;;1.00;;
9138;SDS011;4604;48.616;9.548;2022-12-28T02:10:16;1.97;;;1.20;;
9138;SDS011;4604;48.616;9.548;2022-12-28T02:12:45;2.03;;;1.23;;
9138;SDS011;4604;48.616;9.548;2022-12-28T02:15:11;2.67;;;1.50;;
9138;SDS011;4604;48.616;9.548;2022-12-28T02:17:40;1.77;;;1.37;;
9138;SDS011;4604;48.616;9.548;2022-12-28T02:20:07;1.10;;;1.03;;
9138;SDS011;4604;48.616;9.548;2022-12-28T02:22:39;2.53;;;1.00;;
9138;SDS011;4604;48.616;9.548;2022-12-28T02:31:16;2.10;;;1.50;;
9138;SDS011;4604;48.616;9.548;2022-12-28T02:33:47;1.83;;;1.30;;
9138;SDS011;4604;48.616;9.548;2022-12-28T02:36:21;3.17;;;1.70;;
9138;SDS011;4604;48.616;9.548;2022-12-28T02:38:50;1.77;;;1.57;;
9138;SDS011;4604;48.616;9.548;2022-12-28T02:41:23;1.93;;;1.37;;
9138;SDS011;4604;48.616;9.548;2022-12-28T02:43:52;2.37;;;1.50;;
9138;SDS011;4604;48.616;9.548;2022-12-28T02:46:20;2.13;;;1.70;;
9138;SDS011;4604;48.616;9.548;2022-12-28T02:49:16;1.93;;;1.30;;
9138;SDS011;4604;48.616;9.548;2022-12-28T02:52:05;1.73;;;1.50;;
9138;SDS011;4604;48.616;9.548;2022-12-28T02:54:51;2.33;;;1.43;;
9138;SDS011;4604;48.616;9.548;2022-12-28T02:58:03;2.20;;;1.63;;
9138;SDS011;4604;48.616;9.548;2022-12-28T03:00:57;2.23;;;1.40;;
9138;SDS011;4604;48.616;9.548;2022-12-28T03:03:34;2.00;;;1.50;;
9138;SDS011;4604;48.616;9.548;2022-12-28T03:06:11;2.50;;;1.57;;
9138;SDS011;4604;48.616;9.548;2022-12-28T03:09:12;3.37;;;1.47;;
9138;SDS011;4604;48.616;9.548;2022-12-28T03:11:47;1.73;;;1.40;;
9138;SDS011;4604;48.616;9.548;2022-12-28T03:14:19;1.37;;;1.27;;
9138;SDS011;4604;48.616;9.548;2022-12-28T03:16:51;2.30;;;1.47;;
9138;SDS011;4604;48.616;9.548;2022-12-28T03:19:40;1.80;;;1.53;;
9138;SDS011;4604;48.616;9.548;2022-12-28T03:22:33;1.50;;;1.40;;
9138;SDS011;4604;48.616;9.548;2022-12-28T03:25:21;1.73;;;1.33;;
9138;SDS011;4604;48.616;9.548;2022-12-28T03:28:09;2.60;;;1.40;;
9138;SDS011;4604;48.616;9.548;2022-12-28T03:30:56;2.60;;;1.37;;
9138;SDS011;4604;48.616;9.548;2022-12-28T03:33:33;1.37;;;1.23;;
9138;SDS011;4604;48.616;9.548;2022-12-28T03:36:06;1.07;;;0.97;;
9138;SDS011;4604;48.616;9.548;2022-12-28T03:38:37;1.53;;;1.27;;
9138;SDS011;4604;48.616;9.548;2022-12-28T03:41:13;1.53;;;1.23;;
9138;SDS011;4604;48.616;9.548;2022-12-28T03:43:45;3.00;;;1.33;;
9138;SDS011;4604;48.616;9.548;2022-12-28T03:46:18;1.30;;;1.13;;
9138;SDS011;4604;48.616;9.548;2022-12-28T03:48:50;1.30;;;1.20;;
9138;SDS011;4604;48.616;9.548;2022-12-28T03:51:19;1.27;;;1.10;;
9138;SDS011;4604;48.616;9.548;2022-12-28T03:53:48;1.17;;;1.03;;
9138;SDS011;4604;48.616;9.548;2022-12-28T03:56:16;1.77;;;1.30;;
9138;SDS011;4604;48.616;9.548;2022-12-28T03:58:44;2.97;;;1.37;;
9138;SDS011;4604;48.616;9.548;2022-12-28T04:01:11;1.00;;;0.90;;
9138;SDS011;4604;48.616;9.548;2022-12-28T04:03:38;2.77;;;1.40;;
9138;SDS011;4604;48.616;9.548;2022-12-28T04:06:07;2.27;;;1.30;;
9138;SDS011;4604;48.616;9.548;2022-12-28T04:08:37;2.47;;;1.40;;
9138;SDS011;4604;48.616;9.548;2022-12-28T04:11:03;1.03;;;0.93;;
9138;SDS011;4604;48.616;9.548;2022-12-28T04:13:30;1.20;;;1.10;;
9138;SDS011;4604;48.616;9.548;2022-12-28T04:15:58;3.73;;;1.20;;
9138;SDS011;4604;48.616;9.548;2022-12-28T04:18:26;2.53;;;1.27;;
9138;SDS011;4604;48.616;9.548;2022-12-28T04:20:53;2.53;;;1.60;;
9138;SDS011;4604;48.616;9.548;2022-12-28T04:23:21;2.60;;;2.00;;
9138;SDS011;4604;48.616;9.548;2022-12-28T04:25:55;4.00;;;1.27;;
9138;SDS011;4604;48.616;9.548;2022-12-28T04:28:25;2.43;;;1.53;;
9138;SDS011;4604;48.616;9.548;2022-12-28T04:30:52;2.33;;;1.37;;
9138;SDS011;4604;48.616;9.548;2022-12-28T04:33:19;2.07;;;1.53;;
9138;SDS011;4604;48.616;9.548;2022-12-28T04:35:46;1.73;;;1.37;;
9138;SDS011;4604;48.616;9.548;2022-12-28T04:38:13;1.60;;;1.37;;
9138;SDS011;4604;48.616;9.548;2022-12-28T04:40:41;1.97;;;1.53;;
9138;SDS011;4604;48.616;9.548;2022-12-28T04:43:08;3.87;;;1.87;;
9138;SDS011;4604;48.616;9.548;2022-12-28T04:45:34;2.70;;;1.73;;
9138;SDS011;4604;48.616;9.548;2022-12-28T04:48:01;5.97;;;1.97;;
9138;SDS011;4604;48.616;9.548;2022-12-28T04:50:28;2.30;;;1.50;;
9138;SDS011;4604;48.616;9.548;2022-12-28T04:52:56;2.73;;;1.70;;
9138;SDS011;4604;48.616;9.548;2022-12-28T04:55:23;2.50;;;1.50;;
9138;SDS011;4604;48.616;9.548;2022-12-28T04:57:51;3.47;;;1.70;;
9138;SDS011;4604;48.616;9.548;2022-12-28T05:00:18;2.60;;;1.90;;
9138;SDS011;4604;48.616;9.548;2022-12-28T05:02:45;2.27;;;1.70;;
9138;SDS011;4604;48.616;9.548;2022-12-28T05:05:12;4.73;;;2.20;;
9138;SDS011;4604;48.616;9.548;2022-12-28T05:07:38;5.53;;;2.20;;
9138;SDS011;4604;48.616;9.548;2022-12-28T05:10:05;2.53;;;2.07;;
9138;SDS011;4604;48.616;9.548;2022-12-28T05:12:32;3.23;;;2.20;;
9138;SDS011;4604;48.616;9.548;2022-12-28T05:15:00;5.57;;;2.33;;
9138;SDS011;4604;48.616;9.548;2022-12-28T05:17:27;2.47;;;2.00;;
9138;SDS011;4604;48.616;9.548;2022-12-28T05:19:53;3.00;;;2.10;;
9138;SDS011;4604;48.616;9.548;2022-12-28T05:22:20;3.87;;;2.30;;
9138;SDS011;4604;48.616;9.548;2022-12-28T05:24:47;4.27;;;2.43;;
9138;SDS011;4604;48.616;9.548;2022-12-28T05:27:13;6.50;;;2.27;;
9138;SDS011;4604;48.616;9.548;2022-12-28T05:29:40;6.27;;;2.90;;
9138;SDS011;4604;48.616;9.548;2022-12-28T05:32:08;3.07;;;2.00;;
9138;SDS011;4604;48.616;9.548;2022-12-28T05:34:34;4.10;;;2.17;;
9138;SDS011;4604;48.616;9.548;2022-12-28T05:37:01;2.83;;;2.37;;
9138;SDS011;4604;48.616;9.548;2022-12-28T05:39:28;4.23;;;2.70;;
9138;SDS011;4604;48.616;9.548;2022-12-28T05:41:54;3.50;;;2.50;;
9138;SDS011;4604;48.616;9.548;2022-12-28T05:44:24;6.73;;;2.40;;
9138;SDS011;4604;48.616;9.548;2022-12-28T05:46:50;3.17;;;2.70;;
9138;SDS011;4604;48.616;9.548;2022-12-28T05:49:19;5.23;;;2.20;;
9138;SDS011;4604;48.616;9.548;2022-12-28T05:51:47;3.50;;;2.20;;
9138;SDS011;4604;48.616;9.548;2022-12-28T05:54:14;3.97;;;2.40;;
9138;SDS011;4604;48.616;9.548;2022-12-28T05:56:40;3.80;;;2.40;;
9138;SDS011;4604;48.616;9.548;2022-12-28T05:59:07;3.33;;;2.57;;
9138;SDS011;4604;48.616;9.548;2022-12-28T06:01:34;7.03;;;2.57;;
9138;SDS011;4604;48.616;9.548;2022-12-28T06:04:03;4.60;;;2.37;;
9138;SDS011;4604;48.616;9.548;2022-12-28T06:06:33;3.93;;;2.73;;
9138;SDS011;4604;48.616;9.548;2022-12-28T06:09:01;2.93;;;2.37;;
9138;SDS011;4604;48.616;9.548;2022-12-28T06:11:28;2.73;;;2.13;;
9138;SDS011;4604;48.616;9.548;2022-12-28T06:13:56;5.80;;;2.97;;
9138;SDS011;4604;48.616;9.548;2022-12-28T06:16:24;3.03;;;2.47;;
9138;SDS011;4604;48.616;9.548;2022-12-28T06:18:52;2.87;;;2.50;;
9138;SDS011;4604;48.616;9.548;2022-12-28T06:21:19;5.97;;;2.90;;
9138;SDS011;4604;48.616;9.548;2022-12-28T06:23:51;3.67;;;2.53;;
9138;SDS011;4604;48.616;9.548;2022-12-28T06:26:21;6.20;;;2.80;;
9138;SDS011;4604;48.616;9.548;2022-12-28T06:28:49;3.50;;;2.60;;
9138;SDS011;4604;48.616;9.548;2022-12-28T06:31:16;3.23;;;2.50;;
9138;SDS011;4604;48.616;9.548;2022-12-28T06:33:45;3.97;;;2.70;;
9138;SDS011;4604;48.616;9.548;2022-12-28T06:36:12;4.47;;;2.70;;
9138;SDS011;4604;48.616;9.548;2022-12-28T06:38:41;4.40;;;2.70;;
9138;SDS011;4604;48.616;9.548;2022-12-28T06:41:10;6.87;;;2.80;;
9138;SDS011;4604;48.616;9.548;2022-12-28T06:43:38;5.67;;;3.17;;
9138;SDS011;4604;48.616;9.548;2022-12-28T06:46:06;4.97;;;2.83;;
9138;SDS011;4604;48.616;9.548;2022-12-28T06:48:33;3.80;;;2.60;;
9138;SDS011;4604;48.616;9.548;2022-12-28T06:51:01;4.77;;;2.67;;
9138;SDS011;4604;48.616;9.548;2022-12-28T06:53:29;5.00;;;2.70;;
9138;SDS011;4604;48.616;9.548;2022-12-28T06:55:58;3.73;;;2.60;;
9138;SDS011;4604;48.616;9.548;2022-12-28T06:58:28;4.47;;;2.83;;
9138;SDS011;4604;48.616;9.548;2022-12-28T07:00:55;4.70;;;2.50;;
9138;SDS011;4604;48.616;9.548;2022-12-28T07:03:23;3.77;;;2.60;;
9138;SDS011;4604;48.616;9.548;2022-12-28T07:05:50;3.60;;;2.70;;
9138;SDS011;4604;48.616;9.548;2022-12-28T07:08:17;5.40;;;2.90;;
9138;SDS011;4604;48.616;9.548;2022-12-28T07:10:43;4.70;;;2.60;;
9138;SDS011;4604;48.616;9.548;2022-12-28T07:13:10;4.33;;;2.83;;
9138;SDS011;4604;48.616;9.548;2022-12-28T07:15:39;4.33;;;2.63;;
9138;SDS011;4604;48.616;9.548;2022-12-28T07:18:05;5.33;;;3.30;;
9138;SDS011;4604;48.616;9.548;2022-12-28T07:20:32;6.43;;;3.50;;
9138;SDS011;4604;48.616;9.548;2022-12-28T07:22:59;7.17;;;4.40;;
9138;SDS011;4604;48.616;9.548;2022-12-28T07:25:25;5.57;;;3.60;;
9138;SDS011;4604;48.616;9.548;2022-12-28T07:27:52;7.27;;;3.87;;
9138;SDS011;4604;48.616;9.548;2022-12-28T07:30:19;9.77;;;5.63;;
9138;SDS011;4604;48.616;9.548;2022-12-28T07:32:47;10.37;;;4.83;;
9138;SDS011;4604;48.616;9.548;2022-12-28T07:35:14;8.37;;;4.37;;
9138;SDS011;4604;48.616;9.548;2022-12-28T07:37:40;6.10;;;3.73;;
9138;SDS011;4604;48.616;9.548;2022-12-28T07:40:08;4.47;;;3.10;;
9138;SDS011;4604;48.616;9.548;2022-12-28T07:42:35;4.10;;;2.97;;
9138;SDS011;4604;48.616;9.548;2022-12-28T07:45:02;4.33;;;3.13;;
9138;SDS011;4604;48.616;9.548;2022-12-28T07:47:29;5.87;;;3.20;;
9138;SDS011;4604;48.616;9.548;2022-12-28T07:49:57;5.50;;;3.17;;
9138;SDS011;4604;48.616;9.548;2022-12-28T07:52:24;7.70;;;3.40;;
9138;SDS011;4604;48.616;9.548;2022-12-28T07:54:50;4.13;;;3.00;;
9138;SDS011;4604;48.616;9.548;2022-12-28T07:57:17;6.30;;;3.30;;
9138;SDS011;4604;48.616;9.548;2022-12-28T07:59:43;5.97;;;3.57;;
9138;SDS011;4604;48.616;9.548;2022-12-28T08:02:10;7.33;;;3.43;;
9138;SDS011;4604;48.616;9.548;2022-12-28T08:04:37;4.47;;;3.40;;
9138;SDS011;4604;48.616;9.548;2022-12-28T08:07:05;4.17;;;3.33;;
9138;SDS011;4604;48.616;9.548;2022-12-28T08:09:31;5.30;;;3.90;;
9138;SDS011;4604;48.616;9.548;2022-12-28T08:11:58;6.33;;;3.20;;
9138;SDS011;4604;48.616;9.548;2022-12-28T08:14:26;6.77;;;3.27;;
9138;SDS011;4604;48.616;9.548;2022-12-28T08:16:54;4.83;;;3.40;;
9138;SDS011;4604;48.616;9.548;2022-12-28T08:19:20;7.17;;;3.10;;
9138;SDS011;4604;48.616;9.548;2022-12-28T08:21:47;5.43;;;3.40;;
9138;SDS011;4604;48.616;9.548;2022-12-28T08:24:16;4.57;;;3.17;;
9138;SDS011;4604;48.616;9.548;2022-12-28T08:26:44;6.37;;;4.30;;
9138;SDS011;4604;48.616;9.548;2022-12-28T08:29:13;4.90;;;3.07;;
9138;SDS011;4604;48.616;9.548;2022-12-28T08:31:41;6.43;;;3.50;;
9138;SDS011;4604;48.616;9.548;2022-12-28T08:34:10;6.60;;;3.67;;
9138;SDS011;4604;48.616;9.548;2022-12-28T08:36:39;7.17;;;3.87;;
9138;SDS011;4604;48.616;9.548;2022-12-28T08:39:06;4.97;;;3.60;;
9138;SDS011;4604;48.616;9.548;2022-12-28T08:41:35;5.13;;;3.50;;
9138;SDS011;4604;48.616;9.548;2022-12-28T08:44:01;5.23;;;3.37;;
9138;SDS011;4604;48.616;9.548;2022-12-28T08:46:29;7.20;;;4.00;;
9138;SDS011;4604;48.616;9.548;2022-12-28T08:48:57;5.13;;;3.40;;
9138;SDS011;4604;48.616;9.548;2022-12-28T08:51:25;5.93;;;3.43;;
9138;SDS011;4604;48.616;9.548;2022-12-28T08:53:55;5.97;;;4.00;;
9138;SDS011;4604;48.616;9.548;2022-12-28T08:56:22;5.03;;;3.50;;
9138;SDS011;4604;48.616;9.548;2022-12-28T08:58:53;5.00;;;3.43;;
9138;SDS011;4604;48.616;9.548;2022-12-28T09:01:21;4.73;;;3.23;;
9138;SDS011;4604;48.616;9.548;2022-12-28T09:03:50;4.70;;;3.13;;
9138;SDS011;4604;48.616;9.548;2022-12-28T09:06:19;5.37;;;3.77;;
9138;SDS011;4604;48.616;9.548;2022-12-28T09:08:48;5.80;;;3.80;;
9138;SDS011;4604;48.616;9.548;2022-12-28T09:11:15;5.50;;;3.83;;
9138;SDS011;4604;48.616;9.548;2022-12-28T09:13:42;4.60;;;3.27;;
9138;SDS011;4604;48.616;9.548;2022-12-28T09:16:10;5.07;;;3.30;;
9138;SDS011;4604;48.616;9.548;2022-12-28T09:18:39;5.40;;;3.17;;
9138;SDS011;4604;48.616;9.548;2022-12-28T09:21:07;5.27;;;3.47;;
9138;SDS011;4604;48.616;9.548;2022-12-28T09:23:34;7.33;;;3.40;;
9138;SDS011;4604;48.616;9.548;2022-12-28T09:26:03;6.13;;;4.10;;
9138;SDS011;4604;48.616;9.548;2022-12-28T09:28:30;6.83;;;3.70;;
9138;SDS011;4604;48.616;9.548;2022-12-28T09:30:57;3.97;;;3.10;;
9138;SDS011;4604;48.616;9.548;2022-12-28T09:33:28;6.17;;;3.47;;
9138;SDS011;4604;48.616;9.548;2022-12-28T09:36:12;6.17;;;3.40;;
9138;SDS011;4604;48.616;9.548;2022-12-28T09:38:38;5.03;;;3.60;;
9138;SDS011;4604;48.616;9.548;2022-12-28T09:41:09;5.70;;;3.50;;
9138;SDS011;4604;48.616;9.548;2022-12-28T09:43:38;6.13;;;3.57;;
9138;SDS011;4604;48.616;9.548;2022-12-28T09:46:06;4.20;;;3.17;;
9138;SDS011;4604;48.616;9.548;2022-12-28T09:48:36;5.00;;;3.30;;
9138;SDS011;4604;48.616;9.548;2022-12-28T09:51:05;6.80;;;3.50;;
9138;SDS011;4604;48.616;9.548;2022-12-28T09:53:32;6.93;;;3.50;;
9138;SDS011;4604;48.616;9.548;2022-12-28T09:56:01;5.30;;;3.33;;
9138;SDS011;4604;48.616;9.548;2022-12-28T09:58:31;6.90;;;3.43;;
9138;SDS011;4604;48.616;9.548;2022-12-28T10:01:03;5.30;;;3.50;;
9138;SDS011;4604;48.616;9.548;2022-12-28T10:03:36;6.37;;;3.17;;
9138;SDS011;4604;48.616;9.548;2022-12-28T10:06:08;4.87;;;3.23;;
9138;SDS011;4604;48.616;9.548;2022-12-28T10:08:37;4.60;;;3.07;;
9138;SDS011;4604;48.616;9.548;2022-12-28T10:11:07;4.53;;;3.10;;
9138;SDS011;4604;48.616;9.548;2022-12-28T10:13:35;5.30;;;2.97;;
9138;SDS011;4604;48.616;9.548;2022-12-28T10:16:03;5.80;;;3.07;;
9138;SDS011;4604;48.616;9.548;2022-12-28T10:18:32;4.47;;;3.00;;
9138;SDS011;4604;48.616;9.548;2022-12-28T10:21:03;4.70;;;3.40;;
9138;SDS011;4604;48.616;9.548;2022-12-28T10:23:30;3.73;;;2.80;;
9138;SDS011;4604;48.616;9.548;2022-12-28T10:26:00;3.87;;;3.10;;
9138;SDS011;4604;48.616;9.548;2022-12-28T10:28:29;5.10;;;3.00;;
9138;SDS011;4604;48.616;9.548;2022-12-28T10:31:03;4.73;;;2.93;;
9138;SDS011;4604;48.616;9.548;2022-12-28T10:33:32;4.07;;;3.00;;
9138;SDS011;4604;48.616;9.548;2022-12-28T10:36:04;6.10;;;2.80;;
9138;SDS011;4604;48.616;9.548;2022-12-28T10:38:36;3.80;;;2.60;;
9138;SDS011;4604;48.616;9.548;2022-12-28T10:41:04;3.37;;;2.40;;
9138;SDS011;4604;48.616;9.548;2022-12-28T10:43:34;3.40;;;2.53;;
9138;SDS011;4604;48.616;9.548;2022-12-28T10:46:03;5.40;;;2.70;;
9138;SDS011;4604;48.616;9.548;2022-12-28T10:48:33;3.50;;;2.60;;
9138;SDS011;4604;48.616;9.548;2022-12-28T10:51:10;3.50;;;2.80;;
9138;SDS011;4604;48.616;9.548;2022-12-28T10:53:42;3.87;;;2.70;;
9138;SDS011;4604;48.616;9.548;2022-12-28T10:56:20;3.60;;;2.90;;
9138;SDS011;4604;48.616;9.548;2022-12-28T10:58:50;5.07;;;2.60;;
9138;SDS011;4604;48.616;9.548;2022-12-28T11:01:18;3.40;;;2.50;;
9138;SDS011;4604;48.616;9.548;2022-12-28T11:03:57;3.67;;;2.73;;
9138;SDS011;4604;48.616;9.548;2022-12-28T11:06:31;4.03;;;2.70;;
9138;SDS011;4604;48.616;9.548;2022-12-28T11:08:59;4.80;;;3.00;;
9138;SDS011;4604;48.616;9.548;2022-12-28T11:11:41;5.43;;;2.63;;
9138;SDS011;4604;48.616;9.548;2022-12-28T11:14:11;3.63;;;2.40;;
9138;SDS011;4604;48.616;9.548;2022-12-28T11:16:43;3.10;;;2.70;;
9138;SDS011;4604;48.616;9.548;2022-12-28T11:19:10;3.80;;;2.67;;
9138;SDS011;4604;48.616;9.548;2022-12-28T11:21:39;3.30;;;2.40;;
9138;SDS011;4604;48.616;9.548;2022-12-28T11:24:09;3.47;;;2.67;;
9138;SDS011;4604;48.616;9.548;2022-12-28T11:26:39;3.43;;;2.53;;
9138;SDS011;4604;48.616;9.548;2022-12-28T11:29:09;4.03;;;2.40;;
9138;SDS011;4604;48.616;9.548;2022-12-28T11:31:41;3.73;;;2.30;;
9138;SDS011;4604;48.616;9.548;2022-12-28T11:34:13;3.97;;;2.63;;
9138;SDS011;4604;48.616;9.548;2022-12-28T11:36:45;3.23;;;2.30;;
9138;SDS011;4604;48.616;9.548;2022-12-28T11:39:29;4.00;;;2.23;;
9138;SDS011;4604;48.616;9.548;2022-12-28T11:41:58;3.50;;;1.90;;
9138;SDS011;4604;48.616;9.548;2022-12-28T11:47:22;3.60;;;2.60;;
9138;SDS011;4604;48.616;9.548;2022-12-28T11:52:58;2.40;;;2.10;;
9138;SDS011;4604;48.616;9.548;2022-12-28T12:01:44;4.67;;;2.00;;
9138;SDS011;4604;48.616;9.548;2022-12-28T12:04:17;4.20;;;2.40;;
9138;SDS011;4604;48.616;9.548;2022-12-28T12:16:04;2.13;;;1.63;;
9138;SDS011;4604;48.616;9.548;2022-12-28T12:18:43;2.03;;;1.83;;
9138;SDS011;4604;48.616;9.548;2022-12-28T12:21:19;2.37;;;1.90;;
9138;SDS011;4604;48.616;9.548;2022-12-28T12:23:54;2.27;;;1.80;;
9138;SDS011;4604;48.616;9.548;2022-12-28T12:26:32;3.90;;;2.00;;
9138;SDS011;4604;48.616;9.548;2022-12-28T12:29:03;2.10;;;1.77;;
9138;SDS011;4604;48.616;9.548;2022-12-28T12:31:38;2.40;;;1.97;;
9138;SDS011;4604;48.616;9.548;2022-12-28T12:34:09;3.83;;;2.20;;
9138;SDS011;4604;48.616;9.548;2022-12-28T12:36:53;1.90;;;1.53;;
9138;SDS011;4604;48.616;9.548;2022-12-28T12:39:44;1.70;;;1.60;;
9138;SDS011;4604;48.616;9.548;2022-12-28T12:42:28;1.83;;;1.43;;
9138;SDS011;4604;48.616;9.548;2022-12-28T12:45:04;2.43;;;1.70;;
9138;SDS011;4604;48.616;9.548;2022-12-28T12:47:52;1.77;;;1.40;;
9138;SDS011;4604;48.616;9.548;2022-12-28T12:50:50;2.33;;;1.83;;
9138;SDS011;4604;48.616;9.548;2022-12-28T12:53:28;4.20;;;1.93;;
9138;SDS011;4604;48.616;9.548;2022-12-28T12:56:06;3.20;;;2.20;;
9138;SDS011;4604;48.616;9.548;2022-12-28T12:58:46;2.33;;;2.10;;
9138;SDS011;4604;48.616;9.548;2022-12-28T13:01:25;1.50;;;1.40;;
9138;SDS011;4604;48.616;9.548;2022-12-28T13:03:58;2.60;;;1.77;;
9138;SDS011;4604;48.616;9.548;2022-12-28T13:06:32;2.70;;;1.90;;
9138;SDS011;4604;48.616;9.548;2022-12-28T13:09:03;1.67;;;1.47;;
9138;SDS011;4604;48.616;9.548;2022-12-28T13:11:34;3.40;;;1.97;;
9138;SDS011;4604;48.616;9.548;2022-12-28T13:14:03;1.80;;;1.70;;
9138;SDS011;4604;48.616;9.548;2022-12-28T13:16:31;2.17;;;1.73;;
9138;SDS011;4604;48.616;9.548;2022-12-28T13:18:59;3.00;;;1.97;;
9138;SDS011;4604;48.616;9.548;2022-12-28T13:21:28;2.00;;;1.70;;
9138;SDS011;4604;48.616;9.548;2022-12-28T13:24:16;3.23;;;1.73;;
9138;SDS011;4604;48.616;9.548;2022-12-28T13:26:44;3.43;;;2.20;;
9138;SDS011;4604;48.616;9.548;2022-12-28T13:29:14;2.77;;;2.10;;
9138;SDS011;4604;48.616;9.548;2022-12-28T13:31:43;3.60;;;1.90;;
9138;SDS011;4604;48.616;9.548;2022-12-28T13:34:14;3.73;;;2.00;;
9138;SDS011;4604;48.616;9.548;2022-12-28T13:36:46;2.93;;;2.17;;
9138;SDS011;4604;48.616;9.548;2022-12-28T13:39:14;2.97;;;2.40;;
9138;SDS011;4604;48.616;9.548;2022-12-28T13:41:45;3.23;;;2.27;;
9138;SDS011;4604;48.616;9.548;2022-12-28T13:44:17;3.80;;;2.10;;
9138;SDS011;4604;48.616;9.548;2022-12-28T13:46:51;2.87;;;2.40;;
9138;SDS011;4604;48.616;9.548;2022-12-28T13:49:21;3.00;;;2.20;;
9138;SDS011;4604;48.616;9.548;2022-12-28T13:51:51;2.50;;;1.93;;
9138;SDS011;4604;48.616;9.548;2022-12-28T13:54:18;2.03;;;1.67;;
9138;SDS011;4604;48.616;9.548;2022-12-28T13:56:46;2.27;;;1.77;;
9138;SDS011;4604;48.616;9.548;2022-12-28T13:59:14;3.07;;;2.00;;
9138;SDS011;4604;48.616;9.548;2022-12-28T14:01:45;3.00;;;1.97;;
9138;SDS011;4604;48.616;9.548;2022-12-28T14:04:16;4.07;;;1.93;;
9138;SDS011;4604;48.616;9.548;2022-12-28T14:06:47;2.57;;;2.03;;
9138;SDS011;4604;48.616;9.548;2022-12-28T14:09:14;2.80;;;2.10;;
9138;SDS011;4604;48.616;9.548;2022-12-28T14:11:42;3.07;;;2.40;;
9138;SDS011;4604;48.616;9.548;2022-12-28T14:14:10;3.10;;;2.30;;
9138;SDS011;4604;48.616;9.548;2022-12-28T14:16:39;2.93;;;2.40;;
9138;SDS011;4604;48.616;9.548;2022-12-28T14:19:07;7.77;;;5.13;;
9138;SDS011;4604;48.616;9.548;2022-12-28T14:21:35;24.07;;;11.57;;
9138;SDS011;4604;48.616;9.548;2022-12-28T14:24:04;30.10;;;15.60;;
9138;SDS011;4604;48.616;9.548;2022-12-28T14:26:32;24.77;;;14.80;;
9138;SDS011;4604;48.616;9.548;2022-12-28T14:28:59;17.23;;;11.23;;
9138;SDS011;4604;48.616;9.548;2022-12-28T14:31:27;11.10;;;6.73;;
9138;SDS011;4604;48.616;9.548;2022-12-28T14:33:57;9.13;;;6.47;;
9138;SDS011;4604;48.616;9.548;2022-12-28T14:36:27;20.20;;;11.53;;
9138;SDS011;4604;48.616;9.548;2022-12-28T14:38:56;13.83;;;9.33;;
9138;SDS011;4604;48.616;9.548;2022-12-28T14:41:27;10.93;;;6.67;;
9138;SDS011;4604;48.616;9.548;2022-12-28T14:43:57;13.00;;;6.60;;
9138;SDS011;4604;48.616;9.548;2022-12-28T14:46:30;9.93;;;5.33;;
9138;SDS011;4604;48.616;9.548;2022-12-28T14:49:04;5.20;;;3.50;;
9138;SDS011;4604;48.616;9.548;2022-12-28T14:51:55;5.87;;;3.70;;
9138;SDS011;4604;48.616;9.548;2022-12-28T14:54:22;3.60;;;2.97;;
9138;SDS011;4604;48.616;9.548;2022-12-28T14:56:51;2.93;;;2.60;;
9138;SDS011;4604;48.616;9.548;2022-12-28T14:59:22;5.20;;;2.60;;
9138;SDS011;4604;48.616;9.548;2022-12-28T15:01:52;3.53;;;2.43;;
9138;SDS011;4604;48.616;9.548;2022-12-28T15:04:27;8.37;;;4.30;;
9138;SDS011;4604;48.616;9.548;2022-12-28T15:07:01;4.50;;;3.00;;
9138;SDS011;4604;48.616;9.548;2022-12-28T15:09:27;4.70;;;2.67;;
9138;SDS011;4604;48.616;9.548;2022-12-28T15:12:10;3.07;;;2.40;;
9138;SDS011;4604;48.616;9.548;2022-12-28T15:14:38;5.20;;;2.37;;
9138;SDS011;4604;48.616;9.548;2022-12-28T15:17:05;3.47;;;2.60;;
9138;SDS011;4604;48.616;9.548;2022-12-28T15:19:34;3.07;;;2.37;;
9138;SDS011;4604;48.616;9.548;2022-12-28T15:22:01;3.07;;;2.53;;
9138;SDS011;4604;48.616;9.548;2022-12-28T15:24:27;3.33;;;2.30;;
9138;SDS011;4604;48.616;9.548;2022-12-28T15:26:54;4.00;;;2.60;;
9138;SDS011;4604;48.616;9.548;2022-12-28T15:29:21;3.13;;;2.50;;
9138;SDS011;4604;48.616;9.548;2022-12-28T15:31:48;4.27;;;2.13;;
9138;SDS011;4604;48.616;9.548;2022-12-28T15:34:14;3.00;;;2.20;;
9138;SDS011;4604;48.616;9.548;2022-12-28T15:36:42;4.27;;;2.50;;
9138;SDS011;4604;48.616;9.548;2022-12-28T15:39:10;4.60;;;2.33;;
9138;SDS011;4604;48.616;9.548;2022-12-28T15:41:38;4.43;;;2.43;;
9138;SDS011;4604;48.616;9.548;2022-12-28T15:44:14;3.10;;;2.43;;
9138;SDS011;4604;48.616;9.548;2022-12-28T15:46:43;4.33;;;2.60;;
9138;SDS011;4604;48.616;9.548;2022-12-28T15:49:11;4.03;;;2.60;;
9138;SDS011;4604;48.616;9.548;2022-12-28T15:51:39;2.97;;;2.33;;
9138;SDS011;4604;48.616;9.548;2022-12-28T15:54:08;3.40;;;2.40;;
9138;SDS011;4604;48.616;9.548;2022-12-28T15:56:35;2.40;;;1.90;;
9138;SDS011;4604;48.616;9.548;2022-12-28T15:59:04;3.27;;;2.40;;
9138;SDS011;4604;48.616;9.548;2022-12-28T16:01:32;2.50;;;1.90;;